createdAt,value
2023-05-06T00:00:10.583Z,0.00
2023-05-06T00:01:10.553Z,0.00
2023-05-06T00:02:10.521Z,0.00
2023-05-06T00:03:10.568Z,0.00
2023-05-06T00:04:10.538Z,0.00
2023-05-06T00:05:10.738Z,0.00
2023-05-06T00:06:10.473Z,0.00
2023-05-06T00:07:10.488Z,0.00
2023-05-06T00:08:10.465Z,0.00
2023-05-06T00:09:10.425Z,0.00
2023-05-06T00:10:10.456Z,0.00
2023-05-06T00:11:10.398Z,0.00
2023-05-06T00:12:10.397Z,0.00
2023-05-06T00:13:10.382Z,0.00
2023-05-06T00:14:10.361Z,0.00
2023-05-06T00:15:10.545Z,0.00
2023-05-06T00:16:10.357Z,0.00
2023-05-06T00:17:10.323Z,0.00
2023-05-06T00:18:10.386Z,0.00
2023-05-06T00:19:10.283Z,0.00
2023-05-06T00:20:10.279Z,0.00
2023-05-06T00:21:10.290Z,0.00
2023-05-06T00:22:10.259Z,0.00
2023-05-06T00:23:10.267Z,0.00
2023-05-06T00:24:10.261Z,0.00
2023-05-06T00:25:10.506Z,0.00
2023-05-06T00:26:10.218Z,0.00
2023-05-06T00:27:10.165Z,0.00
2023-05-06T00:28:10.167Z,0.00
2023-05-06T00:29:10.148Z,0.00
2023-05-06T00:30:10.152Z,0.00
2023-05-06T00:31:10.149Z,0.00
2023-05-06T00:32:10.129Z,0.00
2023-05-06T00:33:10.193Z,0.00
2023-05-06T00:34:10.129Z,0.00
2023-05-06T00:35:10.464Z,0.00
2023-05-06T00:36:10.047Z,0.00
2023-05-06T00:37:10.046Z,0.00
2023-05-06T00:38:10.020Z,0.00
2023-05-06T00:39:10.040Z,0.00
2023-05-06T00:40:10.018Z,0.00
2023-05-06T00:41:10.009Z,0.00
2023-05-06T00:42:09.988Z,0.00
2023-05-06T00:43:09.959Z,0.00
2023-05-06T00:44:09.949Z,0.00
2023-05-06T00:45:10.221Z,0.00
2023-05-06T00:46:09.976Z,0.00
2023-05-06T00:47:09.985Z,0.00
2023-05-06T00:48:09.956Z,0.00
2023-05-06T00:49:09.940Z,0.00
2023-05-06T00:50:09.886Z,0.00
2023-05-06T00:51:09.853Z,0.00
2023-05-06T00:52:09.844Z,0.00
2023-05-06T00:53:09.820Z,0.00
2023-05-06T00:54:09.859Z,0.00
2023-05-06T00:55:10.020Z,0.00
2023-05-06T00:56:09.809Z,0.00
2023-05-06T00:57:09.759Z,0.00
2023-05-06T00:58:09.806Z,0.00
2023-05-06T00:59:09.747Z,0.00
2023-05-06T01:00:09.723Z,0.00
2023-05-06T01:01:09.757Z,0.00
2023-05-06T01:02:09.729Z,0.00
2023-05-06T01:03:09.900Z,0.00
2023-05-06T01:04:09.704Z,0.00
2023-05-06T01:05:09.885Z,0.00
2023-05-06T01:06:09.672Z,0.00
2023-05-06T01:07:09.626Z,0.00
2023-05-06T01:08:09.648Z,0.00
2023-05-06T01:09:09.622Z,0.00
2023-05-06T01:10:09.605Z,0.00
2023-05-06T01:11:09.574Z,0.00
2023-05-06T01:12:09.606Z,0.00
2023-05-06T01:13:09.619Z,0.00
2023-05-06T01:14:09.541Z,0.00
2023-05-06T01:15:09.781Z,0.00
2023-05-06T01:16:09.547Z,0.00
2023-05-06T01:17:09.695Z,0.00
2023-05-06T01:18:09.550Z,0.00
2023-05-06T01:19:09.486Z,0.00
2023-05-06T01:20:09.460Z,0.00
2023-05-06T01:21:09.493Z,0.00
2023-05-06T01:22:09.463Z,0.00
2023-05-06T01:23:09.425Z,0.00
2023-05-06T01:24:09.409Z,0.00
2023-05-06T01:25:09.725Z,0.00
2023-05-06T01:26:09.402Z,0.00
2023-05-06T01:27:09.374Z,0.00
2023-05-06T01:28:09.351Z,0.00
2023-05-06T01:29:09.332Z,0.00
2023-05-06T01:30:09.335Z,0.00
2023-05-06T01:31:09.398Z,0.00
2023-05-06T01:32:09.314Z,0.00
2023-05-06T01:33:09.292Z,0.00
2023-05-06T01:34:09.396Z,0.00
2023-05-06T01:35:09.405Z,0.00
2023-05-06T01:36:09.261Z,0.00
2023-05-06T01:37:09.208Z,0.00
2023-05-06T01:38:09.220Z,0.00
2023-05-06T01:39:09.217Z,0.00
2023-05-06T01:40:09.211Z,0.00
2023-05-06T01:41:09.194Z,0.00
2023-05-06T01:42:09.163Z,0.00
2023-05-06T01:43:09.143Z,0.00
2023-05-06T01:44:09.173Z,0.00
2023-05-06T01:45:09.321Z,0.00
2023-05-06T01:46:09.161Z,0.00
2023-05-06T01:47:09.090Z,0.00
2023-05-06T01:48:09.144Z,0.00
2023-05-06T01:49:09.083Z,0.00
2023-05-06T01:50:09.043Z,0.00
2023-05-06T01:51:09.041Z,0.00
2023-05-06T01:52:09.029Z,0.00
2023-05-06T01:53:09.032Z,0.00
2023-05-06T01:54:09.016Z,0.00
2023-05-06T01:55:09.133Z,0.00
2023-05-06T01:56:08.975Z,0.00
2023-05-06T01:57:08.947Z,0.00
2023-05-06T01:58:08.960Z,0.00
2023-05-06T01:59:08.940Z,0.00
2023-05-06T02:00:08.909Z,0.00
2023-05-06T02:01:08.900Z,0.00
2023-05-06T02:02:09.196Z,0.00
2023-05-06T02:03:09.024Z,0.00
2023-05-06T02:04:08.943Z,0.00
2023-05-06T02:05:09.052Z,0.00
2023-05-06T02:06:08.834Z,0.00
2023-05-06T02:07:08.815Z,0.00
2023-05-06T02:08:08.899Z,0.00
2023-05-06T02:09:08.778Z,0.00
2023-05-06T02:10:08.788Z,0.00
2023-05-06T02:11:08.759Z,0.00
2023-05-06T02:12:08.762Z,0.00
2023-05-06T02:13:08.799Z,0.00
2023-05-06T02:14:08.724Z,0.00
2023-05-06T02:15:08.811Z,0.00
2023-05-06T02:16:08.780Z,0.00
2023-05-06T02:17:08.680Z,0.00
2023-05-06T02:18:08.689Z,0.00
2023-05-06T02:19:08.643Z,0.00
2023-05-06T02:20:08.646Z,0.00
2023-05-06T02:21:08.609Z,0.00
2023-05-06T02:22:08.695Z,0.00
2023-05-06T02:23:08.612Z,0.00
2023-05-06T02:24:08.578Z,0.00
2023-05-06T02:25:08.780Z,0.00
2023-05-06T02:26:08.563Z,0.00
2023-05-06T02:27:08.641Z,0.00
2023-05-06T02:28:08.530Z,0.00
2023-05-06T02:29:08.520Z,0.00
2023-05-06T02:30:08.509Z,0.00
2023-05-06T02:31:08.535Z,0.00
2023-05-06T02:32:08.500Z,0.00
2023-05-06T02:33:08.485Z,0.00
2023-05-06T02:34:08.455Z,0.00
2023-05-06T02:35:08.696Z,0.00
2023-05-06T02:36:08.436Z,0.00
2023-05-06T02:37:08.408Z,0.00
2023-05-06T02:38:08.392Z,0.00
2023-05-06T02:39:08.373Z,0.00
2023-05-06T02:40:08.394Z,0.00
2023-05-06T02:41:08.373Z,0.00
2023-05-06T02:42:08.328Z,0.00
2023-05-06T02:43:08.326Z,0.00
2023-05-06T02:44:08.312Z,0.00
2023-05-06T02:45:08.431Z,0.00
2023-05-06T02:46:08.328Z,0.00
2023-05-06T02:47:08.393Z,0.00
2023-05-06T02:48:08.276Z,0.00
2023-05-06T02:49:08.246Z,0.00
2023-05-06T02:50:08.252Z,0.00
2023-05-06T02:51:08.199Z,0.00
2023-05-06T02:52:08.234Z,0.00
2023-05-06T02:53:08.201Z,0.00
2023-05-06T02:54:08.183Z,0.00
2023-05-06T02:55:08.383Z,0.00
2023-05-06T02:56:08.172Z,0.00
2023-05-06T02:57:08.133Z,0.00
2023-05-06T02:58:08.123Z,0.00
2023-05-06T02:59:08.130Z,0.00
2023-05-06T03:00:08.123Z,0.00
2023-05-06T03:01:08.151Z,0.00
2023-05-06T03:02:08.058Z,0.00
2023-05-06T03:03:08.098Z,0.00
2023-05-06T03:04:08.075Z,0.00
2023-05-06T03:05:08.168Z,0.00
2023-05-06T03:06:08.022Z,0.00
2023-05-06T03:07:07.989Z,0.00
2023-05-06T03:08:07.987Z,0.00
2023-05-06T03:09:07.978Z,0.00
2023-05-06T03:10:07.968Z,0.00
2023-05-06T03:11:08.361Z,0.00
2023-05-06T03:12:07.916Z,0.00
2023-05-06T03:13:07.963Z,0.00
2023-05-06T03:14:07.948Z,0.00
2023-05-06T03:15:07.970Z,0.00
2023-05-06T03:16:07.857Z,0.00
2023-05-06T03:17:07.912Z,0.00
2023-05-06T03:18:07.926Z,0.00
2023-05-06T03:19:07.838Z,0.00
2023-05-06T03:20:07.812Z,0.00
2023-05-06T03:21:07.856Z,0.00
2023-05-06T03:22:07.805Z,0.00
2023-05-06T03:23:07.790Z,0.00
2023-05-06T03:24:07.776Z,0.00
2023-05-06T03:25:08.129Z,0.00
2023-05-06T03:26:07.740Z,0.00
2023-05-06T03:27:07.729Z,0.00
2023-05-06T03:28:07.708Z,0.00
2023-05-06T03:29:07.676Z,0.00
2023-05-06T03:30:07.668Z,0.00
2023-05-06T03:31:07.700Z,0.00
2023-05-06T03:32:07.673Z,0.00
2023-05-06T03:34:07.661Z,4.00
2023-05-06T03:35:07.744Z,4.00
2023-05-06T03:36:07.607Z,4.00
2023-05-06T03:37:07.653Z,4.00
2023-05-06T03:38:07.569Z,4.00
2023-05-06T03:39:07.561Z,4.00
2023-05-06T03:40:07.562Z,4.00
2023-05-06T03:41:07.515Z,4.00
2023-05-06T03:42:09.196Z,8.00
2023-05-06T03:43:07.522Z,12.00
2023-05-06T03:44:07.502Z,8.00
2023-05-06T03:45:07.548Z,8.00
2023-05-06T03:46:07.551Z,12.00
2023-05-06T03:47:07.442Z,16.00
2023-05-06T03:48:07.485Z,16.00
2023-05-06T03:49:07.434Z,16.00
2023-05-06T03:50:07.402Z,16.00
2023-05-06T03:51:07.400Z,20.00
2023-05-06T03:52:07.377Z,24.00
2023-05-06T03:53:07.368Z,28.00
2023-05-06T03:54:07.337Z,32.00
2023-05-06T03:55:07.464Z,32.00
2023-05-06T03:56:07.329Z,36.00
2023-05-06T03:57:07.330Z,40.00
2023-05-06T03:58:07.285Z,44.00
2023-05-06T03:59:07.292Z,48.00
2023-05-06T04:00:07.278Z,56.00
2023-05-06T04:01:07.250Z,56.00
2023-05-06T04:02:07.332Z,64.00
2023-05-06T04:03:07.289Z,68.00
2023-05-06T04:04:07.252Z,72.00
2023-05-06T04:05:07.313Z,80.00
2023-05-06T04:06:07.178Z,88.00
2023-05-06T04:07:07.178Z,96.00
2023-05-06T04:08:07.144Z,104.00
2023-05-06T04:09:07.160Z,104.00
2023-05-06T04:10:07.141Z,112.00
2023-05-06T04:11:07.113Z,120.00
2023-05-06T04:12:07.113Z,128.00
2023-05-06T04:13:07.133Z,136.00
2023-05-06T04:14:07.073Z,144.00
2023-05-06T04:15:07.100Z,156.00
2023-05-06T04:16:07.291Z,164.00
2023-05-06T04:17:07.798Z,176.00
2023-05-06T04:18:07.070Z,184.00
2023-05-06T04:19:07.049Z,196.00
2023-05-06T04:20:06.985Z,212.00
2023-05-06T04:21:06.971Z,216.00
2023-05-06T04:22:06.940Z,232.00
2023-05-06T04:23:06.981Z,236.00
2023-05-06T04:24:06.965Z,248.00
2023-05-06T04:25:06.912Z,256.00
2023-05-06T04:26:06.895Z,260.00
2023-05-06T04:27:06.915Z,268.00
2023-05-06T04:28:06.892Z,284.00
2023-05-06T04:29:06.854Z,288.00
2023-05-06T04:30:06.854Z,296.00
2023-05-06T04:31:06.839Z,296.00
2023-05-06T04:32:06.905Z,308.00
2023-05-06T04:33:06.869Z,304.00
2023-05-06T04:34:06.803Z,316.00
2023-05-06T04:35:06.792Z,316.00
2023-05-06T04:36:06.755Z,336.00
2023-05-06T04:37:06.774Z,356.00
2023-05-06T04:38:06.749Z,364.00
2023-05-06T04:39:06.782Z,384.00
2023-05-06T04:40:06.754Z,380.00
2023-05-06T04:41:06.696Z,388.00
2023-05-06T04:42:06.713Z,416.00
2023-05-06T04:43:06.668Z,408.00
2023-05-06T04:44:06.659Z,440.00
2023-05-06T04:45:06.712Z,452.00
2023-05-06T04:46:06.655Z,464.00
2023-05-06T04:47:06.637Z,488.00
2023-05-06T04:48:06.606Z,476.00
2023-05-06T04:49:06.578Z,512.00
2023-05-06T04:50:06.584Z,504.00
2023-05-06T04:51:06.600Z,488.00
2023-05-06T04:52:06.547Z,524.00
2023-05-06T04:53:06.531Z,508.00
2023-05-06T04:54:06.510Z,528.00
2023-05-06T04:55:06.597Z,568.00
2023-05-06T04:56:06.498Z,572.00
2023-05-06T04:57:06.490Z,612.00
2023-05-06T04:58:06.454Z,584.00
2023-05-06T04:59:06.455Z,560.00
2023-05-06T05:00:06.463Z,624.00
2023-05-06T05:01:06.453Z,576.00
2023-05-06T05:02:06.481Z,532.00
2023-05-06T05:03:06.469Z,516.00
2023-05-06T05:04:06.393Z,556.00
2023-05-06T05:05:06.384Z,572.00
2023-05-06T05:06:06.380Z,588.00
2023-05-06T05:07:06.341Z,576.00
2023-05-06T05:08:06.315Z,672.00
2023-05-06T05:09:06.312Z,712.00
2023-05-06T05:10:06.329Z,732.00
2023-05-06T05:11:06.284Z,656.00
2023-05-06T05:12:06.265Z,664.00
2023-05-06T05:13:06.397Z,712.00
2023-05-06T05:14:06.253Z,720.00
2023-05-06T05:15:06.260Z,876.00
2023-05-06T05:16:06.215Z,984.00
2023-05-06T05:17:06.222Z,1052.00
2023-05-06T05:18:06.314Z,1000.00
2023-05-06T05:19:08.334Z,1028.00
2023-05-06T05:20:06.184Z,960.00
2023-05-06T05:21:06.160Z,1008.00
2023-05-06T05:22:06.171Z,908.00
2023-05-06T05:23:06.158Z,1028.00
2023-05-06T05:24:06.158Z,980.00
2023-05-06T05:25:07.827Z,936.00
2023-05-06T05:26:06.078Z,936.00
2023-05-06T05:27:06.114Z,916.00
2023-05-06T05:28:06.099Z,900.00
2023-05-06T05:29:06.127Z,868.00
2023-05-06T05:30:06.024Z,904.00
2023-05-06T05:31:06.912Z,840.00
2023-05-06T05:32:05.988Z,912.00
2023-05-06T05:33:06.072Z,1028.00
2023-05-06T05:34:05.955Z,936.00
2023-05-06T05:35:05.979Z,860.00
2023-05-06T05:36:05.937Z,980.00
2023-05-06T05:37:05.934Z,1060.00
2023-05-06T05:38:05.916Z,1292.00
2023-05-06T05:39:05.915Z,1316.00
2023-05-06T05:40:05.884Z,1316.00
2023-05-06T05:41:05.891Z,1216.00
2023-05-06T05:42:05.879Z,1204.00
2023-05-06T05:43:05.866Z,1156.00
2023-05-06T05:44:05.862Z,1208.00
2023-05-06T05:45:05.825Z,1212.00
2023-05-06T05:46:05.855Z,1276.00
2023-05-06T05:47:05.803Z,1132.00
2023-05-06T05:48:05.819Z,1104.00
2023-05-06T05:49:05.764Z,1056.00
2023-05-06T05:50:05.766Z,1272.00
2023-05-06T05:51:05.759Z,1328.00
2023-05-06T05:52:05.734Z,1196.00
2023-05-06T05:53:05.741Z,1108.00
2023-05-06T05:54:05.707Z,1320.00
2023-05-06T05:55:05.703Z,1220.00
2023-05-06T05:56:05.673Z,1088.00
2023-05-06T05:57:05.691Z,1136.00
2023-05-06T05:58:05.669Z,1108.00
2023-05-06T05:59:05.640Z,1128.00
2023-05-06T06:00:05.608Z,1240.00
2023-05-06T06:01:05.607Z,1128.00
2023-05-06T06:02:05.626Z,1156.00
2023-05-06T06:03:05.643Z,1152.00
2023-05-06T06:04:05.758Z,992.00
2023-05-06T06:05:05.552Z,1036.00
2023-05-06T06:06:05.594Z,988.00
2023-05-06T06:07:05.544Z,1004.00
2023-05-06T06:08:05.502Z,1020.00
2023-05-06T06:09:05.594Z,956.00
2023-05-06T06:10:05.632Z,952.00
2023-05-06T06:11:05.493Z,1136.00
2023-05-06T06:12:05.453Z,1360.00
2023-05-06T06:13:05.449Z,1664.00
2023-05-06T06:14:05.466Z,1780.00
2023-05-06T06:15:05.457Z,1712.00
2023-05-06T06:16:05.469Z,1472.00
2023-05-06T06:17:05.391Z,1300.00
2023-05-06T06:18:05.421Z,1380.00
2023-05-06T06:19:05.391Z,1340.00
2023-05-06T06:20:05.385Z,1120.00
2023-05-06T06:21:05.363Z,988.00
2023-05-06T06:22:05.514Z,968.00
2023-05-06T06:23:05.303Z,952.00
2023-05-06T06:24:05.329Z,956.00
2023-05-06T06:25:05.286Z,980.00
2023-05-06T06:26:05.264Z,976.00
2023-05-06T06:27:05.290Z,992.00
2023-05-06T06:28:05.236Z,1008.00
2023-05-06T06:29:05.229Z,1008.00
2023-05-06T06:30:05.236Z,1032.00
2023-05-06T06:31:05.229Z,1028.00
2023-05-06T06:32:05.235Z,1016.00
2023-05-06T06:33:05.183Z,1004.00
2023-05-06T06:34:05.219Z,1004.00
2023-05-06T06:35:05.141Z,1012.00
2023-05-06T06:36:05.115Z,956.00
2023-05-06T06:37:07.447Z,996.00
2023-05-06T06:38:05.119Z,992.00
2023-05-06T06:39:05.110Z,944.00
2023-05-06T06:40:05.060Z,980.00
2023-05-06T06:41:05.060Z,992.00
2023-05-06T06:42:05.041Z,1020.00
2023-05-06T06:43:05.341Z,1040.00
2023-05-06T06:44:05.007Z,1064.00
2023-05-06T06:45:05.022Z,1076.00
2023-05-06T06:46:05.021Z,1052.00
2023-05-06T06:47:04.990Z,1068.00
2023-05-06T06:48:05.018Z,1068.00
2023-05-06T06:49:04.946Z,1084.00
2023-05-06T06:50:04.968Z,1084.00
2023-05-06T06:51:04.928Z,1080.00
2023-05-06T06:52:04.910Z,1136.00
2023-05-06T06:53:06.377Z,1136.00
2023-05-06T06:54:04.883Z,1152.00
2023-05-06T06:55:04.884Z,1160.00
2023-05-06T06:56:04.884Z,1164.00
2023-05-06T06:57:04.857Z,1160.00
2023-05-06T06:58:04.837Z,1172.00
2023-05-06T06:59:04.816Z,1168.00
2023-05-06T07:00:04.814Z,1172.00
2023-05-06T07:01:04.819Z,1172.00
2023-05-06T07:02:04.795Z,1160.00
2023-05-06T07:03:04.781Z,1160.00
2023-05-06T07:04:07.035Z,1168.00
2023-05-06T07:05:04.759Z,1176.00
2023-05-06T07:06:04.775Z,1172.00
2023-05-06T07:07:04.734Z,1168.00
2023-05-06T07:08:04.672Z,1164.00
2023-05-06T07:09:04.687Z,1172.00
2023-05-06T07:10:04.662Z,1168.00
2023-05-06T07:11:04.717Z,1164.00
2023-05-06T07:12:04.664Z,1164.00
2023-05-06T07:13:04.638Z,1156.00
2023-05-06T07:14:04.602Z,1152.00
2023-05-06T07:15:04.625Z,1148.00
2023-05-06T07:16:04.603Z,1144.00
2023-05-06T07:17:04.582Z,1140.00
2023-05-06T07:18:04.598Z,1136.00
2023-05-06T07:19:04.544Z,1124.00
2023-05-06T07:20:04.553Z,1116.00
2023-05-06T07:21:04.517Z,1136.00
2023-05-06T07:22:04.493Z,1160.00
2023-05-06T07:23:04.482Z,1168.00
2023-05-06T07:24:04.466Z,1192.00
2023-05-06T07:25:04.468Z,1220.00
2023-05-06T07:26:04.443Z,1232.00
2023-05-06T07:27:04.429Z,1236.00
2023-05-06T07:28:04.420Z,1240.00
2023-05-06T07:29:04.405Z,1256.00
2023-05-06T07:30:04.524Z,1264.00
2023-05-06T07:31:04.429Z,1260.00
2023-05-06T07:32:04.375Z,1280.00
2023-05-06T07:33:04.372Z,1292.00
2023-05-06T07:34:04.334Z,1308.00
2023-05-06T07:35:04.341Z,1296.00
2023-05-06T07:36:04.310Z,1280.00
2023-05-06T07:37:04.299Z,1300.00
2023-05-06T07:38:04.270Z,1320.00
2023-05-06T07:39:04.314Z,1328.00
2023-05-06T07:40:04.248Z,1324.00
2023-05-06T07:41:04.242Z,1364.00
2023-05-06T07:42:04.224Z,1416.00
2023-05-06T07:43:04.234Z,1468.00
2023-05-06T07:44:04.243Z,1500.00
2023-05-06T07:45:04.209Z,1548.00
2023-05-06T07:46:04.231Z,1596.00
2023-05-06T07:47:04.331Z,1652.00
2023-05-06T07:48:04.193Z,1668.00
2023-05-06T07:49:04.177Z,1672.00
2023-05-06T07:50:04.142Z,1692.00
2023-05-06T07:51:04.100Z,1692.00
2023-05-06T07:52:04.121Z,1676.00
2023-05-06T07:53:04.152Z,1624.00
2023-05-06T07:54:04.081Z,1568.00
2023-05-06T07:55:04.047Z,1568.00
2023-05-06T07:56:04.029Z,1584.00
2023-05-06T07:57:04.019Z,1584.00
2023-05-06T07:58:04.061Z,1564.00
2023-05-06T07:59:03.985Z,1580.00
2023-05-06T08:00:03.977Z,1572.00
2023-05-06T08:01:03.958Z,1580.00
2023-05-06T08:02:04.026Z,1588.00
2023-05-06T08:03:04.105Z,1612.00
2023-05-06T08:04:04.034Z,1604.00
2023-05-06T08:05:03.918Z,1628.00
2023-05-06T08:06:03.948Z,1612.00
2023-05-06T08:07:03.888Z,1596.00
2023-05-06T08:08:03.892Z,1532.00
2023-05-06T08:09:03.859Z,1572.00
2023-05-06T08:10:03.843Z,1588.00
2023-05-06T08:11:03.852Z,1628.00
2023-05-06T08:12:03.851Z,1636.00
2023-05-06T08:13:03.873Z,1652.00
2023-05-06T08:14:03.799Z,1696.00
2023-05-06T08:15:03.779Z,1724.00
2023-05-06T08:16:03.843Z,1748.00
2023-05-06T08:17:03.779Z,1792.00
2023-05-06T08:18:13.679Z,1832.00
2023-05-06T08:19:04.711Z,1872.00
2023-05-06T08:20:03.723Z,1916.00
2023-05-06T08:21:03.734Z,1968.00
2023-05-06T08:22:03.691Z,1996.00
2023-05-06T08:23:03.667Z,1996.00
2023-05-06T08:24:03.655Z,2004.00
2023-05-06T08:25:03.642Z,2004.00
2023-05-06T08:26:03.665Z,1948.00
2023-05-06T08:27:03.612Z,1972.00
2023-05-06T08:28:03.610Z,1948.00
2023-05-06T08:29:03.586Z,1936.00
2023-05-06T08:30:03.650Z,1924.00
2023-05-06T08:31:03.566Z,1932.00
2023-05-06T08:32:03.625Z,1944.00
2023-05-06T08:33:03.594Z,1964.00
2023-05-06T08:34:03.520Z,2020.00
2023-05-06T08:35:03.532Z,2068.00
2023-05-06T08:36:03.501Z,2108.00
2023-05-06T08:37:03.477Z,2176.00
2023-05-06T08:38:03.464Z,2228.00
2023-05-06T08:39:03.434Z,2224.00
2023-05-06T08:40:03.481Z,2212.00
2023-05-06T08:41:03.445Z,2200.00
2023-05-06T08:42:03.411Z,2184.00
2023-05-06T08:43:03.404Z,2184.00
2023-05-06T08:44:03.420Z,2160.00
2023-05-06T08:45:03.360Z,2152.00
2023-05-06T08:46:03.383Z,2240.00
2023-05-06T08:47:03.343Z,2240.00
2023-05-06T08:48:03.398Z,2228.00
2023-05-06T08:49:03.344Z,2192.00
2023-05-06T08:50:03.309Z,2156.00
2023-05-06T08:51:03.297Z,2092.00
2023-05-06T08:52:03.281Z,2060.00
2023-05-06T08:53:03.325Z,2044.00
2023-05-06T08:54:03.263Z,1932.00
2023-05-06T08:55:03.284Z,1976.00
2023-05-06T08:56:03.223Z,2068.00
2023-05-06T08:57:03.210Z,2084.00
2023-05-06T08:58:03.213Z,2108.00
2023-05-06T08:59:03.189Z,2200.00
2023-05-06T09:00:03.315Z,2236.00
2023-05-06T09:01:03.203Z,2268.00
2023-05-06T09:02:03.222Z,2336.00
2023-05-06T09:03:03.197Z,2348.00
2023-05-06T09:04:03.115Z,2260.00
2023-05-06T09:05:03.104Z,2076.00
2023-05-06T09:06:03.085Z,2160.00
2023-05-06T09:07:03.096Z,2228.00
2023-05-06T09:08:03.072Z,2220.00
2023-05-06T09:09:03.044Z,2192.00
2023-05-06T09:10:03.037Z,2228.00
2023-05-06T09:11:03.027Z,2244.00
2023-05-06T09:12:03.047Z,2236.00
2023-05-06T09:13:03.090Z,2228.00
2023-05-06T09:14:02.994Z,2236.00
2023-05-06T09:15:02.973Z,2280.00
2023-05-06T09:16:02.971Z,2344.00
2023-05-06T09:17:03.032Z,2384.00
2023-05-06T09:18:03.007Z,2412.00
2023-05-06T09:19:02.931Z,2440.00
2023-05-06T09:20:02.919Z,2496.00
2023-05-06T09:21:02.875Z,2604.00
2023-05-06T09:22:02.929Z,2676.00
2023-05-06T09:23:02.877Z,2700.00
2023-05-06T09:24:02.853Z,2680.00
2023-05-06T09:25:02.824Z,2608.00
2023-05-06T09:26:02.844Z,2620.00
2023-05-06T09:27:02.807Z,2680.00
2023-05-06T09:28:02.802Z,2752.00
2023-05-06T09:29:02.775Z,2780.00
2023-05-06T09:30:02.789Z,2796.00
2023-05-06T09:31:02.828Z,2772.00
2023-05-06T09:32:02.732Z,2716.00
2023-05-06T09:33:02.757Z,2732.00
2023-05-06T09:34:02.701Z,2824.00
2023-05-06T09:35:02.716Z,2948.00
2023-05-06T09:36:02.717Z,3120.00
2023-05-06T09:37:02.667Z,3248.00
2023-05-06T09:38:02.821Z,3288.00
2023-05-06T09:39:02.637Z,3316.00
2023-05-06T09:40:02.682Z,3392.00
2023-05-06T09:41:02.644Z,3400.00
2023-05-06T09:42:02.599Z,3480.00
2023-05-06T09:43:02.686Z,3544.00
2023-05-06T09:44:02.593Z,3640.00
2023-05-06T09:45:02.629Z,3708.00
2023-05-06T09:46:02.607Z,3692.00
2023-05-06T09:47:02.515Z,3704.00
2023-05-06T09:48:02.569Z,3648.00
2023-05-06T09:49:02.540Z,3892.00
2023-05-06T09:50:02.512Z,4084.00
2023-05-06T09:51:02.477Z,4300.00
2023-05-06T09:52:02.477Z,4416.00
2023-05-06T09:53:02.457Z,4632.00
2023-05-06T09:54:02.440Z,4724.00
2023-05-06T09:55:02.440Z,5016.00
2023-05-06T09:56:02.406Z,5172.00
2023-05-06T09:57:02.381Z,5372.00
2023-05-06T09:58:02.396Z,5476.00
2023-05-06T09:59:02.383Z,5532.00
2023-05-06T10:00:02.347Z,5496.00
2023-05-06T10:01:02.320Z,5400.00
2023-05-06T10:02:02.423Z,5584.00
2023-05-06T10:03:02.404Z,5828.00
2023-05-06T10:04:02.448Z,5940.00
2023-05-06T10:05:02.477Z,6036.00
2023-05-06T10:06:02.298Z,6092.00
2023-05-06T10:07:02.245Z,6156.00
2023-05-06T10:08:02.274Z,6288.00
2023-05-06T10:09:02.228Z,6292.00
2023-05-06T10:10:02.236Z,6504.00
2023-05-06T10:11:02.211Z,6684.00
2023-05-06T10:12:02.211Z,6984.00
2023-05-06T10:13:02.234Z,7160.00
2023-05-06T10:14:02.178Z,7292.00
2023-05-06T10:15:02.368Z,7408.00
2023-05-06T10:16:02.198Z,7680.00
2023-05-06T10:17:02.157Z,8124.00
2023-05-06T10:18:02.164Z,8076.00
2023-05-06T10:19:02.125Z,8092.00
2023-05-06T10:20:02.085Z,8752.00
2023-05-06T10:21:02.076Z,10224.00
2023-05-06T10:22:04.452Z,11892.00
2023-05-06T10:23:02.036Z,13308.00
2023-05-06T10:24:02.053Z,15036.00
2023-05-06T10:25:02.007Z,18432.00
2023-05-06T10:26:02.018Z,24064.00
2023-05-06T10:27:02.022Z,25504.00
2023-05-06T10:28:03.350Z,28000.00
2023-05-06T10:29:01.953Z,30816.00
2023-05-06T10:30:01.946Z,31008.00
2023-05-06T10:31:01.948Z,35040.00
2023-05-06T10:32:02.012Z,39616.00
2023-05-06T10:33:02.005Z,33920.00
2023-05-06T10:34:01.891Z,30144.00
2023-05-06T10:35:01.882Z,34240.00
2023-05-06T10:36:01.879Z,39872.00
2023-05-06T10:37:01.854Z,41824.00
2023-05-06T10:38:01.830Z,38336.00
2023-05-06T10:39:01.817Z,39712.00
2023-05-06T10:40:01.828Z,38080.00
2023-05-06T10:41:01.842Z,40416.00
2023-05-06T10:42:01.790Z,40288.00
2023-05-06T10:43:01.753Z,41728.00
2023-05-06T10:44:01.750Z,40192.00
2023-05-06T10:45:01.767Z,44192.00
2023-05-06T10:46:01.795Z,45760.00
2023-05-06T10:47:01.716Z,48256.00
2023-05-06T10:48:01.745Z,49632.00
2023-05-06T10:49:01.675Z,42304.00
2023-05-06T10:50:01.770Z,42976.00
2023-05-06T10:51:01.659Z,31968.00
2023-05-06T10:52:01.635Z,45056.00
2023-05-06T10:53:01.623Z,44928.00
2023-05-06T10:54:01.663Z,46496.00
2023-05-06T10:55:01.625Z,45920.00
2023-05-06T10:56:01.601Z,48832.00
2023-05-06T10:57:01.561Z,53696.00
2023-05-06T10:58:01.563Z,53504.00
2023-05-06T10:59:01.563Z,49216.00
2023-05-06T11:00:01.553Z,49824.00
2023-05-06T11:01:01.553Z,53248.00
2023-05-06T11:02:01.541Z,52160.00
2023-05-06T11:03:01.698Z,52448.00
2023-05-06T11:04:01.502Z,43520.00
2023-05-06T11:05:01.453Z,40768.00
2023-05-06T11:06:01.524Z,44032.00
2023-05-06T11:07:01.434Z,30848.00
2023-05-06T11:08:01.450Z,16544.00
2023-05-06T11:09:01.441Z,13760.00
2023-05-06T11:10:01.414Z,13472.00
2023-05-06T11:11:01.399Z,13128.00
2023-05-06T11:12:01.378Z,16448.00
2023-05-06T11:13:01.415Z,14108.00
2023-05-06T11:14:01.360Z,12172.00
2023-05-06T11:15:01.349Z,11492.00
2023-05-06T11:16:01.330Z,11528.00
2023-05-06T11:17:01.450Z,11804.00
2023-05-06T11:18:01.392Z,12868.00
2023-05-06T11:19:01.292Z,14888.00
2023-05-06T11:20:01.300Z,18688.00
2023-05-06T11:21:01.280Z,11128.00
2023-05-06T11:22:01.295Z,11184.00
2023-05-06T11:23:01.241Z,13196.00
2023-05-06T11:24:01.218Z,12624.00
2023-05-06T11:25:01.204Z,12344.00
2023-05-06T11:26:01.191Z,11728.00
2023-05-06T11:27:01.207Z,12108.00
2023-05-06T11:28:01.166Z,12464.00
2023-05-06T11:29:01.155Z,13096.00
2023-05-06T11:30:01.140Z,18016.00
2023-05-06T11:31:01.144Z,16192.00
2023-05-06T11:32:01.142Z,17568.00
2023-05-06T11:33:02.206Z,22720.00
2023-05-06T11:34:01.096Z,17120.00
2023-05-06T11:35:01.067Z,30048.00
2023-05-06T11:36:01.075Z,22144.00
2023-05-06T11:37:01.064Z,22240.00
2023-05-06T11:38:01.063Z,32000.00
2023-05-06T11:39:01.991Z,21568.00
2023-05-06T11:40:01.013Z,30752.00
2023-05-06T11:41:01.009Z,20000.00
2023-05-06T11:42:00.985Z,19360.00
2023-05-06T11:43:00.962Z,21664.00
2023-05-06T11:44:00.959Z,23200.00
2023-05-06T11:45:00.936Z,27104.00
2023-05-06T11:46:00.987Z,27328.00
2023-05-06T11:47:00.911Z,34144.00
2023-05-06T11:48:00.989Z,25376.00
2023-05-06T11:49:00.887Z,33216.00
2023-05-06T11:50:00.885Z,39040.00
2023-05-06T11:51:00.880Z,32192.00
2023-05-06T11:52:00.845Z,51360.00
2023-05-06T11:53:00.828Z,55776.00
2023-05-06T11:54:00.826Z,52160.00
2023-05-06T11:55:00.817Z,57568.00
2023-05-06T11:56:00.817Z,54912.00
2023-05-06T11:57:00.775Z,50208.00
2023-05-06T11:58:00.785Z,50752.00
2023-05-06T11:59:00.744Z,49216.00
2023-05-06T12:00:00.752Z,53568.00
2023-05-06T12:01:00.712Z,44704.00
2023-05-06T12:02:00.718Z,46400.00
2023-05-06T12:03:00.793Z,42592.00
2023-05-06T12:04:00.803Z,41696.00
2023-05-06T12:05:00.762Z,35648.00
2023-05-06T12:06:00.653Z,10920.00
2023-05-06T12:07:00.644Z,9084.00
2023-05-06T12:08:00.644Z,11528.00
2023-05-06T12:09:00.638Z,43424.00
2023-05-06T12:10:00.688Z,30848.00
2023-05-06T12:11:00.593Z,39552.00
2023-05-06T12:12:00.595Z,39648.00
2023-05-06T12:13:00.649Z,46208.00
2023-05-06T12:14:00.563Z,27264.00
2023-05-06T12:15:00.543Z,35072.00
2023-05-06T12:16:00.608Z,30016.00
2023-05-06T12:17:00.510Z,56192.00
2023-05-06T12:18:00.574Z,44768.00
2023-05-06T12:19:00.507Z,47424.00
2023-05-06T12:20:00.479Z,51456.00
2023-05-06T12:21:00.464Z,48576.00
2023-05-06T12:22:00.451Z,47616.00
2023-05-06T12:23:00.444Z,46816.00
2023-05-06T12:24:00.500Z,49280.00
2023-05-06T12:25:00.406Z,48480.00
2023-05-06T12:26:00.383Z,48512.00
2023-05-06T12:27:00.377Z,51136.00